Time;durP1;ratioP1;P1;durP2;ratioP2;P2;SDS_P1;SDS_P2;PMS_P1;PMS_P2;Temp;Humidity;BMP_temperature;BMP_pressure;BME280_temperature;BME280_humidity;BME280_pressure;Samples;Min_cycle;Max_cycle;Signal;HPM_P1;HPM_P2
2022/06/18 00:00:26;;;;;;;9.80;8.95;;;;;;;19.39;61.92;95203.22;5058998;28;20236;-71
2022/06/18 00:02:52;;;;;;;9.55;8.65;;;;;;;19.36;62.04;95208.16;5071783;28;20255;-71
2022/06/18 00:05:19;;;;;;;9.02;8.23;;;;;;;19.25;62.37;95196.25;5056410;28;20241;-65
2022/06/18 00:07:51;;;;;;;9.02;8.13;;;;;;;19.26;62.34;95211.19;5053661;28;20217;-64
2022/06/18 00:10:22;;;;;;;9.07;8.27;;;;;;;19.16;62.82;95202.75;5055309;28;20196;-65
2022/06/18 00:15:36;;;;;;;9.20;8.35;;;;;;;19.09;63.04;95208.09;5053725;28;20259;-69
2022/06/18 00:18:03;;;;;;;9.70;8.80;;;;;;;19.12;62.90;95204.19;5063711;28;20221;-65
2022/06/18 00:20:33;;;;;;;8.70;7.90;;;;;;;19.02;62.97;95201.09;5060922;28;20236;-67
2022/06/18 00:23:00;;;;;;;9.52;8.65;;;;;;;18.91;63.29;95191.81;5054425;28;20225;-62
2022/06/18 00:25:36;;;;;;;9.23;8.48;;;;;;;19.00;63.19;95197.78;5052381;28;20258;-69
2022/06/18 00:28:10;;;;;;;9.35;8.65;;;;;;;18.91;63.39;95194.47;5041357;28;20367;-70
2022/06/18 00:30:35;;;;;;;9.45;8.73;;;;;;;18.75;64.02;95184.97;5058396;28;20217;-66
2022/06/18 00:33:00;;;;;;;9.23;8.52;;;;;;;18.75;63.91;95184.16;5055762;28;20235;-62
2022/06/18 00:35:26;;;;;;;9.18;8.40;;;;;;;18.87;63.60;95188.75;5049112;28;20277;-69
2022/06/18 00:37:55;;;;;;;10.15;9.40;;;;;;;18.88;63.49;95194.88;5057246;28;20205;-69
2022/06/18 00:40:34;;;;;;;9.10;8.40;;;;;;;18.86;63.60;95183.59;5049940;28;20208;-65
2022/06/18 00:43:05;;;;;;;9.98;9.02;;;;;;;18.88;63.51;95189.56;5039246;28;20228;-68
2022/06/18 00:45:31;;;;;;;8.95;8.15;;;;;;;18.80;63.81;95189.72;5037566;28;20217;-63
2022/06/18 00:48:09;;;;;;;9.00;8.20;;;;;;;18.72;64.02;95182.69;5039425;28;20230;-65
2022/06/18 00:50:38;;;;;;;10.40;8.77;;;;;;;18.72;64.15;95186.16;5058739;28;20264;-67
2022/06/18 00:53:42;;;;;;;9.02;8.30;;;;;;;18.77;63.98;95180.28;5064179;28;20217;-63
2022/06/18 00:56:33;;;;;;;9.27;8.32;;;;;;;18.82;63.72;95190.31;5022239;28;20224;-68
2022/06/18 00:59:04;;;;;;;8.93;8.18;;;;;;;18.74;64.07;95178.00;5035024;28;20225;-68
2022/06/18 01:01:38;;;;;;;9.73;8.73;;;;;;;18.73;64.03;95181.66;5034672;28;20205;-66
2022/06/18 01:04:21;;;;;;;9.63;8.70;;;;;;;18.65;64.30;95182.66;5038067;28;20233;-69
2022/06/18 01:06:47;;;;;;;10.10;9.15;;;;;;;18.64;64.50;95186.34;5036153;28;20221;-69
2022/06/18 01:09:17;;;;;;;9.65;8.73;;;;;;;18.65;64.34;95173.84;5027619;28;20226;-69
2022/06/18 01:11:45;;;;;;;10.13;9.27;;;;;;;18.62;64.25;95171.56;5027320;28;20230;-68
2022/06/18 01:14:15;;;;;;;9.10;8.50;;;;;;;18.63;64.20;95176.72;5025296;28;20323;-65
2022/06/18 01:16:40;;;;;;;9.00;8.35;;;;;;;18.45;64.61;95185.22;5033746;28;20475;-69
2022/06/18 01:19:15;;;;;;;9.02;8.23;;;;;;;18.49;64.63;95181.13;5017733;28;20202;-69
2022/06/18 01:22:05;;;;;;;8.75;8.00;;;;;;;18.43;64.10;95192.56;5019572;28;20225;-66
2022/06/18 01:24:38;;;;;;;9.15;8.25;;;;;;;18.38;64.04;95184.34;5034569;28;20216;-67
2022/06/18 01:27:05;;;;;;;8.57;7.82;;;;;;;18.36;64.14;95186.38;5037116;28;20257;-69
2022/06/18 01:29:31;;;;;;;7.85;7.30;;;;;;;18.36;64.09;95190.88;5017906;28;20230;-65
2022/06/18 01:31:57;;;;;;;8.43;7.72;;;;;;;18.34;63.91;95188.44;5026758;28;20251;-68
2022/06/18 01:34:23;;;;;;;8.57;7.80;;;;;;;18.36;63.65;95188.22;5053943;28;20200;-67
2022/06/18 01:36:49;;;;;;;8.23;7.53;;;;;;;18.38;63.45;95187.00;5055901;28;20225;-65
2022/06/18 01:39:19;;;;;;;8.15;7.45;;;;;;;18.34;63.48;95184.97;5063685;28;20307;-68
2022/06/18 01:41:49;;;;;;;8.43;7.63;;;;;;;18.34;63.00;95183.13;5073972;28;20312;-66
2022/06/18 01:44:37;;;;;;;7.47;6.97;;;;;;;18.32;63.27;95187.00;5092625;28;20299;-63
2022/06/18 01:47:12;;;;;;;8.60;7.75;;;;;;;18.29;63.31;95180.22;5057804;28;20228;-63
2022/06/18 01:49:43;;;;;;;8.35;7.60;;;;;;;18.21;63.40;95185.69;5055273;28;20281;-66
2022/06/18 01:52:10;;;;;;;8.52;7.47;;;;;;;18.17;63.70;95187.09;5053070;28;20197;-66
2022/06/18 01:54:46;;;;;;;7.88;7.28;;;;;;;18.32;62.99;95185.13;5052481;28;20221;-66
2022/06/18 01:57:17;;;;;;;7.57;6.97;;;;;;;18.23;63.05;95179.16;5047075;28;20229;-64
2022/06/18 01:59:49;;;;;;;7.95;7.15;;;;;;;18.26;63.28;95191.25;5032288;28;20225;-69
2022/06/18 02:02:15;;;;;;;7.38;6.68;;;;;;;18.17;63.47;95187.09;5042165;28;20225;-67
2022/06/18 02:04:42;;;;;;;7.40;6.80;;;;;;;18.14;63.33;95192.78;5053257;28;20247;-68
2022/06/18 02:07:08;;;;;;;7.50;6.80;;;;;;;18.12;63.46;95178.84;5041372;28;20201;-63
2022/06/18 02:09:53;;;;;;;8.18;7.38;;;;;;;18.16;63.20;95174.81;5038568;28;20334;-65
2022/06/18 02:12:23;;;;;;;8.02;7.32;;;;;;;18.08;63.53;95176.59;5036901;28;20286;-68
2022/06/18 02:14:54;;;;;;;8.02;7.32;;;;;;;17.98;63.99;95170.78;5037137;28;20250;-65
2022/06/18 02:17:21;;;;;;;7.68;7.00;;;;;;;17.88;64.08;95172.94;5054196;28;20229;-70
2022/06/18 02:19:52;;;;;;;9.23;7.50;;;;;;;17.88;64.22;95178.28;5043060;28;20201;-66
2022/06/18 02:22:21;;;;;;;8.10;7.30;;;;;;;17.82;64.27;95173.72;5039955;28;20276;-66
2022/06/18 02:24:46;;;;;;;7.10;6.45;;;;;;;17.80;64.50;95167.78;5037593;28;20299;-68
2022/06/18 02:27:14;;;;;;;7.82;7.13;;;;;;;17.87;64.11;95171.31;5042738;28;20233;-65
2022/06/18 02:29:42;;;;;;;8.13;7.32;;;;;;;17.82;64.48;95176.38;5056406;28;20255;-70
2022/06/18 02:32:16;;;;;;;7.70;7.05;;;;;;;17.88;63.99;95186.25;5063420;28;20271;-69
2022/06/18 02:34:42;;;;;;;9.00;7.18;;;;;;;17.81;64.36;95182.75;5070183;28;20201;-71
2022/06/18 02:37:20;;;;;;;7.95;7.15;;;;;;;17.79;64.33;95174.94;5069364;28;20246;-70
2022/06/18 02:40:03;;;;;;;7.68;7.07;;;;;;;17.97;63.43;95174.47;5068927;28;20220;-69
2022/06/18 02:42:32;;;;;;;7.90;7.20;;;;;;;17.95;63.68;95183.66;5056263;28;20433;-65
2022/06/18 02:45:00;;;;;;;8.05;7.35;;;;;;;17.87;63.91;95179.28;5060203;28;20274;-68
2022/06/18 02:47:25;;;;;;;9.45;7.53;;;;;;;17.84;63.89;95175.19;5064684;28;20228;-70
2022/06/18 02:50:00;;;;;;;9.93;7.00;;;;;;;17.89;63.52;95179.94;5058717;28;20213;-70
2022/06/18 02:52:30;;;;;;;11.45;8.32;;;;;;;17.89;63.27;95165.81;5066400;28;20362;-69
2022/06/18 02:55:19;;;;;;;8.43;7.68;;;;;;;17.69;63.98;95176.25;5058726;28;20255;-67
2022/06/18 02:57:48;;;;;;;10.88;8.15;;;;;;;17.78;63.54;95175.94;5063120;28;20232;-65
2022/06/18 03:00:14;;;;;;;8.35;7.55;;;;;;;17.70;63.88;95173.41;5058101;28;20208;-68
2022/06/18 03:02:39;;;;;;;8.30;7.65;;;;;;;17.68;63.87;95178.09;5054693;28;20219;-69
2022/06/18 03:05:06;;;;;;;8.02;7.22;;;;;;;17.66;64.09;95181.97;5062366;28;20216;-65
2022/06/18 03:07:33;;;;;;;7.63;6.85;;;;;;;17.74;63.75;95184.47;5057479;28;20216;-65
2022/06/18 03:12:43;;;;;;;8.10;7.10;;;;;;;17.72;63.78;95182.03;5059239;28;20332;-68
2022/06/18 03:15:09;;;;;;;8.05;7.28;;;;;;;17.76;63.39;95175.28;5064216;28;20304;-65
2022/06/18 03:17:35;;;;;;;8.55;7.75;;;;;;;17.80;63.36;95181.06;5063306;28;20349;-66
2022/06/18 03:20:10;;;;;;;7.13;6.53;;;;;;;17.77;63.34;95176.94;5062441;28;20221;-67
2022/06/18 03:22:35;;;;;;;8.40;7.25;;;;;;;17.84;62.81;95182.34;5056845;28;20258;-72
2022/06/18 03:25:00;;;;;;;8.13;7.18;;;;;;;17.83;62.76;95175.41;5053453;28;20205;-64
2022/06/18 03:27:26;;;;;;;8.55;6.70;;;;;;;17.86;62.63;95177.66;5060267;28;20221;-66
2022/06/18 03:29:52;;;;;;;7.70;6.85;;;;;;;17.85;62.79;95173.34;5059336;28;20233;-70
2022/06/18 03:32:18;;;;;;;8.50;6.20;;;;;;;17.91;62.30;95188.56;5057868;28;20271;-65
2022/06/18 03:34:43;;;;;;;7.85;6.68;;;;;;;17.90;62.45;95184.22;5055062;28;20213;-71
2022/06/18 03:37:09;;;;;;;6.80;6.20;;;;;;;17.91;62.42;95188.56;5055205;28;20209;-65
2022/06/18 03:39:34;;;;;;;7.07;6.38;;;;;;;17.94;62.51;95196.16;5059969;28;20221;-69
2022/06/18 03:42:00;;;;;;;6.55;5.95;;;;;;;17.89;62.19;95187.91;5062034;28;20273;-66
2022/06/18 03:44:25;;;;;;;7.40;6.47;;;;;;;17.87;62.46;95200.56;5055600;28;20252;-65
2022/06/18 03:46:51;;;;;;;7.10;6.43;;;;;;;17.88;61.89;95202.22;5060596;28;20213;-65
2022/06/18 03:49:26;;;;;;;7.03;6.32;;;;;;;17.92;62.09;95203.47;5060706;28;20205;-68
2022/06/18 03:51:53;;;;;;;7.07;6.40;;;;;;;17.90;62.49;95199.38;5069653;27;20244;-64
2022/06/18 03:54:18;;;;;;;7.00;6.47;;;;;;;17.97;62.46;95197.59;5059908;28;20221;-64
2022/06/18 03:56:44;;;;;;;7.75;6.93;;;;;;;18.08;62.30;95211.19;5061401;28;20232;-69
2022/06/18 03:59:10;;;;;;;7.70;7.03;;;;;;;18.04;61.83;95203.75;5057408;28;20231;-69
2022/06/18 04:01:40;;;;;;;8.50;6.55;;;;;;;18.01;61.41;95206.81;5068902;28;20208;-69
2022/06/18 04:04:07;;;;;;;7.07;6.47;;;;;;;17.97;62.04;95209.06;5063987;28;20258;-65
2022/06/18 04:06:32;;;;;;;8.63;6.90;;;;;;;17.93;61.94;95201.63;5056417;28;20218;-71
2022/06/18 04:08:58;;;;;;;6.35;5.82;;;;;;;17.90;62.19;95208.16;5062304;28;20232;-70
2022/06/18 04:11:23;;;;;;;7.45;6.18;;;;;;;17.90;62.07;95202.84;5048368;28;20216;-68
2022/06/18 04:13:49;;;;;;;8.27;7.32;;;;;;;17.98;61.87;95201.88;5059887;28;20240;-65
2022/06/18 04:16:14;;;;;;;9.27;6.28;;;;;;;18.09;61.59;95206.69;5069433;28;20783;-64
2022/06/18 04:18:41;;;;;;;7.22;6.35;;;;;;;18.17;61.61;95203.88;5054431;28;20232;-69
2022/06/18 04:21:07;;;;;;;6.75;5.75;;;;;;;18.33;60.78;95213.38;5056374;28;20256;-65
2022/06/18 04:23:33;;;;;;;6.85;6.18;;;;;;;18.54;59.29;95209.84;5063535;28;20278;-65
2022/06/18 04:25:58;;;;;;;6.32;5.72;;;;;;;18.35;59.73;95215.88;5061693;28;20228;-66
2022/06/18 04:28:24;;;;;;;6.20;5.78;;;;;;;18.22;60.00;95211.28;5055174;28;20524;-70
2022/06/18 04:30:50;;;;;;;9.10;5.78;;;;;;;18.26;59.74;95213.38;5063162;28;20216;-69
2022/06/18 04:33:15;;;;;;;5.82;5.38;;;;;;;18.23;59.82;95212.91;5071286;28;20281;-67
2022/06/18 04:35:41;;;;;;;5.63;5.13;;;;;;;18.33;59.83;95215.25;5063131;28;20213;-69
2022/06/18 04:38:07;;;;;;;7.50;6.22;;;;;;;18.27;60.31;95216.84;5066658;28;20205;-67
2022/06/18 04:40:33;;;;;;;6.43;5.70;;;;;;;18.27;60.60;95217.66;5070352;28;20193;-65
2022/06/18 04:43:05;;;;;;;6.35;5.45;;;;;;;18.38;59.93;95218.97;5055754;28;20234;-69
2022/06/18 04:45:31;;;;;;;6.20;5.60;;;;;;;18.24;60.10;95215.38;5072175;28;20916;-63
2022/06/18 04:47:57;;;;;;;6.28;5.50;;;;;;;18.30;60.55;95219.13;5059356;28;20224;-68
2022/06/18 04:50:27;;;;;;;6.30;5.70;;;;;;;18.36;59.58;95218.31;5056188;28;20217;-63
2022/06/18 04:52:52;;;;;;;5.90;5.20;;;;;;;18.22;59.56;95206.78;5054174;28;20837;-67
2022/06/18 04:55:18;;;;;;;5.65;5.18;;;;;;;18.32;59.68;95206.44;5062236;28;20216;-72
2022/06/18 04:57:44;;;;;;;6.03;5.40;;;;;;;18.39;59.52;95211.78;5064030;28;20376;-68
2022/06/18 05:00:10;;;;;;;6.05;5.40;;;;;;;18.41;59.22;95210.56;5049285;28;20288;-65
2022/06/18 05:02:37;;;;;;;8.23;5.47;;;;;;;18.40;59.89;95208.94;5045947;28;20255;-70
2022/06/18 05:05:05;;;;;;;6.13;4.72;;;;;;;18.54;58.86;95214.34;5053701;28;20219;-66
2022/06/18 05:07:31;;;;;;;5.38;4.93;;;;;;;18.54;59.03;95214.34;5060644;28;20218;-68
2022/06/18 05:09:56;;;;;;;6.78;5.63;;;;;;;18.60;58.71;95216.22;5049651;28;20217;-68
2022/06/18 05:12:21;;;;;;;6.07;5.00;;;;;;;18.65;57.90;95211.94;5054829;28;20212;-66
2022/06/18 05:14:47;;;;;;;5.45;4.88;;;;;;;18.68;58.37;95221.38;5054994;28;20267;-70
2022/06/18 05:17:18;;;;;;;5.75;4.75;;;;;;;18.67;58.23;95222.41;5051833;28;20221;-65
2022/06/18 05:19:44;;;;;;;5.15;4.75;;;;;;;18.79;57.72;95212.03;5051003;28;20208;-69
2022/06/18 05:22:10;;;;;;;5.90;5.40;;;;;;;18.85;58.30;95221.94;5060695;28;20270;-64
2022/06/18 05:24:35;;;;;;;5.93;5.43;;;;;;;18.82;58.10;95215.16;5050877;28;20256;-66
2022/06/18 05:27:01;;;;;;;9.75;5.53;;;;;;;18.89;58.11;95213.31;5052472;28;20263;-70
2022/06/18 05:29:30;;;;;;;6.72;6.00;;;;;;;18.93;58.23;95211.09;5062101;28;20221;-70
2022/06/18 05:31:57;;;;;;;5.90;5.30;;;;;;;18.91;57.09;95208.63;5062229;28;20246;-65
2022/06/18 05:34:23;;;;;;;5.53;4.68;;;;;;;19.06;56.89;95212.97;5052991;28;20216;-68
2022/06/18 05:36:49;;;;;;;6.82;5.00;;;;;;;19.03;57.54;95210.72;5054896;28;20232;-67
2022/06/18 05:39:18;;;;;;;5.80;5.30;;;;;;;19.11;57.11;95222.03;5060319;28;20232;-67
2022/06/18 05:41:44;;;;;;;5.97;5.22;;;;;;;19.16;57.11;95224.09;5055546;28;20228;-66
2022/06/18 05:44:09;;;;;;;6.03;5.05;;;;;;;19.24;57.34;95225.75;5054659;28;20302;-64
2022/06/18 05:46:35;;;;;;;5.38;5.00;;;;;;;19.21;57.25;95224.31;5060348;28;20205;-64
2022/06/18 05:49:00;;;;;;;6.35;5.28;;;;;;;19.18;57.52;95216.72;5068699;28;20216;-67
2022/06/18 05:51:26;;;;;;;6.28;5.68;;;;;;;19.37;57.66;95237.28;5065132;28;20252;-65
2022/06/18 05:53:52;;;;;;;6.25;5.35;;;;;;;19.45;56.50;95233.59;5061709;28;20230;-65
2022/06/18 05:56:18;;;;;;;6.15;5.65;;;;;;;19.43;56.74;95237.50;5063258;28;20220;-66
2022/06/18 05:58:43;;;;;;;7.47;5.22;;;;;;;19.41;56.83;95239.56;5058344;28;20209;-67
2022/06/18 06:01:09;;;;;;;6.85;5.38;;;;;;;19.32;56.46;95229.06;5056768;28;20197;-64
2022/06/18 06:03:34;;;;;;;5.45;4.78;;;;;;;19.49;55.52;95226.84;5057785;28;20224;-65
2022/06/18 06:06:00;;;;;;;6.05;5.10;;;;;;;19.63;54.69;95238.38;5057456;28;20244;-65
2022/06/18 06:08:26;;;;;;;5.45;4.88;;;;;;;19.59;55.77;95232.63;5062092;28;20217;-69
2022/06/18 06:13:36;;;;;;;5.63;4.65;;;;;;;19.63;55.52;95234.88;5058636;28;20240;-66
2022/06/18 06:16:02;;;;;;;5.25;4.85;;;;;;;19.75;54.57;95236.78;5054621;28;20205;-65
2022/06/18 06:18:29;;;;;;;4.47;4.13;;;;;;;19.73;53.19;95238.84;5064205;28;20381;-66
2022/06/18 06:20:56;;;;;;;4.60;4.28;;;;;;;19.77;53.52;95240.06;5061805;28;20231;-66
2022/06/18 06:23:24;;;;;;;4.80;4.40;;;;;;;19.74;53.84;95235.13;5065702;28;20588;-65
2022/06/18 06:25:50;;;;;;;4.72;4.32;;;;;;;19.66;54.87;95234.47;5057546;28;20335;-68
2022/06/18 06:28:21;;;;;;;4.60;4.20;;;;;;;19.82;54.43;95231.44;5063291;28;20299;-64
2022/06/18 06:30:47;;;;;;;5.53;4.97;;;;;;;19.89;53.43;95226.09;5055253;28;20217;-67
2022/06/18 06:33:13;;;;;;;6.97;4.47;;;;;;;19.94;53.77;95237.00;5061731;28;20239;-68
2022/06/18 06:35:39;;;;;;;5.75;5.00;;;;;;;19.91;53.69;95224.06;5060996;28;20308;-70
2022/06/18 06:38:05;;;;;;;5.28;4.70;;;;;;;20.12;53.52;95233.72;5058514;28;20253;-63
2022/06/18 06:40:32;;;;;;;5.35;4.90;;;;;;;20.10;53.53;95233.09;5064073;28;20203;-69
2022/06/18 06:42:58;;;;;;;5.13;4.63;;;;;;;20.13;52.14;95236.19;5060583;28;20346;-64
2022/06/18 06:45:29;;;;;;;5.10;4.70;;;;;;;20.03;52.72;95235.78;5061391;28;20238;-65
2022/06/18 06:47:55;;;;;;;4.47;3.72;;;;;;;20.09;51.72;95229.59;5056078;28;20232;-68
2022/06/18 06:50:23;;;;;;;4.13;3.83;;;;;;;20.21;50.77;95230.66;5057343;28;20220;-67
2022/06/18 06:52:49;;;;;;;5.65;4.25;;;;;;;20.20;51.19;95231.66;5060499;28;20209;-70
2022/06/18 06:58:09;;;;;;;4.72;4.00;;;;;;;20.33;51.50;95230.00;5042537;28;20274;-68
2022/06/18 07:00:42;;;;;;;5.47;4.35;;;;;;;20.33;52.69;95236.16;5044232;28;20228;-68
2022/06/18 07:03:13;;;;;;;4.80;4.35;;;;;;;20.35;52.04;95235.97;5036799;28;20295;-67
2022/06/18 07:05:39;;;;;;;4.80;4.50;;;;;;;20.42;51.84;95231.44;5038734;28;20245;-64
2022/06/18 07:08:04;;;;;;;4.38;4.05;;;;;;;20.48;51.04;95228.75;5031454;28;20229;-68
2022/06/18 07:10:30;;;;;;;6.90;4.20;;;;;;;20.47;50.53;95231.63;5036723;28;20202;-66
2022/06/18 07:12:55;;;;;;;4.75;4.35;;;;;;;20.53;49.96;95228.16;5072737;28;20240;-68
2022/06/18 07:15:24;;;;;;;4.13;3.55;;;;;;;20.63;50.30;95235.75;5065499;28;20232;-64
2022/06/18 07:17:49;;;;;;;4.72;4.20;;;;;;;20.58;49.30;95222.19;5064782;28;20304;-63
2022/06/18 07:20:18;;;;;;;3.92;3.63;;;;;;;20.62;48.02;95229.59;5058341;28;20295;-64
2022/06/18 07:22:46;;;;;;;6.07;4.30;;;;;;;20.61;48.95;95224.44;5060237;28;20247;-68
2022/06/18 07:25:16;;;;;;;5.10;4.60;;;;;;;20.77;49.75;95226.69;5059244;28;20240;-65
2022/06/18 07:27:44;;;;;;;4.90;4.38;;;;;;;20.90;47.63;95233.81;5073465;28;20319;-64
2022/06/18 07:30:10;;;;;;;4.43;4.03;;;;;;;20.89;47.15;95229.53;5061356;28;20312;-68
2022/06/18 07:32:38;;;;;;;4.57;4.18;;;;;;;21.01;47.74;95237.69;5060322;28;20282;-67
2022/06/18 07:35:04;;;;;;;4.57;4.18;;;;;;;21.07;47.47;95229.66;5061777;28;20208;-67
2022/06/18 07:37:30;;;;;;;4.65;4.15;;;;;;;21.07;47.04;95232.34;5055552;28;20256;-70
2022/06/18 07:39:56;;;;;;;6.05;4.07;;;;;;;21.06;46.69;95236.06;5056153;28;20221;-68
2022/06/18 07:42:23;;;;;;;4.47;3.90;;;;;;;21.02;46.50;95234.81;5056541;28;20220;-65
2022/06/18 07:44:49;;;;;;;4.22;3.83;;;;;;;21.05;46.49;95222.88;5073202;28;20235;-71
2022/06/18 07:47:17;;;;;;;4.38;3.92;;;;;;;20.86;47.10;95225.41;5059324;28;20212;-65
2022/06/18 07:49:45;;;;;;;5.93;4.60;;;;;;;21.10;47.88;95231.91;5060905;28;20213;-66
2022/06/18 07:52:15;;;;;;;5.53;4.18;;;;;;;21.27;45.59;95228.75;5063662;28;20213;-67
2022/06/18 07:54:40;;;;;;;4.47;4.07;;;;;;;21.34;45.62;95216.16;5061534;28;20277;-69
2022/06/18 07:57:06;;;;;;;6.30;4.00;;;;;;;21.32;46.05;95218.22;5063571;28;20224;-69
2022/06/18 07:59:32;;;;;;;4.75;4.10;;;;;;;21.44;45.78;95218.41;5064141;28;20247;-68
2022/06/18 08:01:58;;;;;;;6.28;4.07;;;;;;;21.33;46.51;95217.19;5059438;28;20221;-69
2022/06/18 08:04:23;;;;;;;4.95;3.78;;;;;;;21.47;46.07;95221.47;5065100;28;20201;-70
2022/06/18 08:06:49;;;;;;;5.63;4.50;;;;;;;21.59;45.45;95219.75;5056793;28;20321;-68
2022/06/18 08:09:14;;;;;;;4.60;4.20;;;;;;;21.64;44.42;95221.78;5062833;28;20286;-64
2022/06/18 08:11:40;;;;;;;5.00;4.30;;;;;;;21.75;43.98;95220.28;5059053;28;20282;-69
2022/06/18 08:14:06;;;;;;;4.60;3.70;;;;;;;21.66;43.27;95213.56;5056478;28;20233;-68
2022/06/18 08:16:31;;;;;;;4.07;3.63;;;;;;;21.59;43.63;95224.28;5055743;28;20216;-66
2022/06/18 08:18:57;;;;;;;5.38;3.83;;;;;;;21.72;44.43;95223.38;5061350;28;20266;-64
2022/06/18 08:21:30;;;;;;;4.68;3.55;;;;;;;21.84;44.40;95221.66;5057245;28;20225;-62
2022/06/18 08:24:07;;;;;;;5.15;3.53;;;;;;;22.02;43.58;95216.38;5058471;28;20232;-61
2022/06/18 08:26:34;;;;;;;4.28;3.88;;;;;;;22.14;42.07;95221.03;5079143;28;20297;-64
2022/06/18 08:29:01;;;;;;;4.95;3.20;;;;;;;22.37;43.25;95221.28;5059351;28;20253;-64
2022/06/18 08:31:27;;;;;;;5.07;4.07;;;;;;;22.58;42.39;95221.88;5062036;28;20205;-67
2022/06/18 08:33:53;;;;;;;4.07;3.60;;;;;;;22.75;42.33;95224.78;5056344;28;20274;-69
2022/06/18 08:36:19;;;;;;;4.20;3.78;;;;;;;22.84;43.30;95216.25;5057157;28;20296;-65
2022/06/18 08:38:46;;;;;;;5.20;3.83;;;;;;;22.63;43.86;95214.00;5057456;28;20221;-64
2022/06/18 08:41:24;;;;;;;4.00;3.58;;;;;;;22.90;43.06;95220.69;5070611;28;20266;-69
2022/06/18 08:44:04;;;;;;;3.85;3.55;;;;;;;23.13;42.11;95213.06;5055963;28;20684;-65
2022/06/18 08:46:59;;;;;;;4.30;3.90;;;;;;;23.10;42.67;95212.47;5057552;28;20246;-65
2022/06/18 08:49:43;;;;;;;5.90;3.70;;;;;;;23.01;43.04;95215.66;5072210;28;20236;-64
2022/06/18 08:52:11;;;;;;;4.32;3.92;;;;;;;23.28;41.84;95210.78;5058186;28;20244;-67
2022/06/18 08:55:13;;;;;;;4.30;3.90;;;;;;;23.24;42.51;95213.13;5059523;28;20229;-66
2022/06/18 08:57:54;;;;;;;4.45;4.05;;;;;;;23.29;42.51;95212.44;5056119;28;20216;-65
2022/06/18 09:00:39;;;;;;;4.45;4.05;;;;;;;23.35;41.91;95216.91;5074328;28;20293;-62
2022/06/18 09:03:27;;;;;;;4.38;3.78;;;;;;;23.51;41.88;95205.53;5061673;28;20221;-62
2022/06/18 09:06:12;;;;;;;4.40;4.10;;;;;;;23.66;41.61;95205.13;5035507;28;20236;-63
2022/06/18 09:08:55;;;;;;;4.93;4.20;;;;;;;23.76;42.04;95205.44;5053927;28;20232;-64
2022/06/18 09:11:28;;;;;;;5.57;3.88;;;;;;;23.96;41.62;95209.66;5060019;28;20217;-67
2022/06/18 09:14:07;;;;;;;4.38;3.75;;;;;;;23.92;40.50;95203.94;5041875;28;20237;-67
2022/06/18 09:16:42;;;;;;;4.05;3.75;;;;;;;23.99;40.76;95195.78;5037444;28;20238;-65
2022/06/18 09:19:11;;;;;;;4.00;3.67;;;;;;;24.16;41.42;95201.28;5044929;28;20220;-65
2022/06/18 09:21:46;;;;;;;4.03;3.78;;;;;;;24.07;41.17;95192.75;5036509;28;20244;-68
2022/06/18 09:24:19;;;;;;;4.47;3.92;;;;;;;24.08;41.24;95191.69;5037512;28;20364;-65
2022/06/18 09:26:50;;;;;;;4.85;4.45;;;;;;;24.10;41.41;95200.34;5029012;28;20226;-68
2022/06/18 09:29:22;;;;;;;4.15;3.65;;;;;;;24.03;41.54;95202.34;5040256;28;20324;-68
2022/06/18 09:32:00;;;;;;;4.78;3.53;;;;;;;23.76;42.30;95199.22;5059820;28;20232;-64
2022/06/18 09:34:37;;;;;;;3.90;3.63;;;;;;;23.53;43.65;95202.63;5055507;28;20189;-68
2022/06/18 09:37:15;;;;;;;4.70;3.65;;;;;;;23.52;41.68;95217.06;5087970;28;20228;-65
2022/06/18 09:39:47;;;;;;;5.88;3.63;;;;;;;23.38;41.51;95205.72;5059455;28;20220;-66
2022/06/18 09:42:17;;;;;;;3.45;3.15;;;;;;;23.41;41.17;95204.44;5054026;28;20221;-65
2022/06/18 09:45:00;;;;;;;3.00;2.80;;;;;;;23.41;41.70;95202.56;5052796;28;20240;-66
2022/06/18 09:47:36;;;;;;;4.22;3.40;;;;;;;23.39;40.16;95206.53;5057632;28;20231;-70
2022/06/18 09:50:11;;;;;;;4.43;3.53;;;;;;;23.43;40.42;95205.84;5051744;28;20231;-66
2022/06/18 09:52:39;;;;;;;6.40;4.25;;;;;;;23.26;41.02;95213.72;5074537;28;20212;-66
2022/06/18 09:55:12;;;;;;;5.40;4.32;;;;;;;23.41;41.53;95217.84;5060086;28;20459;-66
2022/06/18 09:57:42;;;;;;;5.57;3.80;;;;;;;23.60;42.25;95208.69;5056616;28;20241;-68
2022/06/18 10:00:13;;;;;;;4.80;4.00;;;;;;;23.85;42.33;95200.53;5051723;28;20216;-69
2022/06/18 10:02:45;;;;;;;4.55;4.07;;;;;;;23.57;42.72;95206.47;5054853;28;20221;-69
2022/06/18 10:08:04;;;;;;;3.90;3.60;;;;;;;23.92;40.81;95206.63;5050726;28;20243;-68
2022/06/18 10:10:33;;;;;;;4.50;4.10;;;;;;;24.14;41.17;95198.03;5059346;28;20327;-68
2022/06/18 10:13:00;;;;;;;4.47;3.72;;;;;;;24.19;39.63;95195.44;5063660;28;20242;-68
2022/06/18 10:15:28;;;;;;;4.25;3.88;;;;;;;24.20;39.94;95194.41;5072778;28;20216;-65
2022/06/18 10:18:31;;;;;;;4.50;4.20;;;;;;;24.62;39.08;95195.13;5070778;28;20688;-65
2022/06/18 10:21:00;;;;;;;4.63;4.20;;;;;;;24.82;39.81;95193.94;5054164;28;21336;-70
2022/06/18 10:23:43;;;;;;;7.95;3.97;;;;;;;25.12;39.44;95187.56;5074518;28;20209;-65
2022/06/18 10:26:27;;;;;;;5.50;3.88;;;;;;;25.23;38.39;95189.41;5057193;28;20303;-65
2022/06/18 10:29:18;;;;;;;3.75;3.45;;;;;;;25.09;38.45;95183.47;5059623;28;20228;-70
2022/06/18 10:32:24;;;;;;;6.28;5.57;;;;;;;25.83;37.06;95177.34;5063910;28;20216;-67
2022/06/18 10:35:16;;;;;;;4.30;3.78;;;;;;;26.24;37.07;95186.91;5060859;28;20243;-63
2022/06/18 10:38:41;;;;;;;5.32;3.90;;;;;;;26.33;36.84;95190.84;5025879;28;20236;-70
2022/06/18 10:41:40;;;;;;;5.35;4.40;;;;;;;26.11;37.97;95185.38;4984013;28;20219;-67
2022/06/18 10:44:26;;;;;;;5.03;4.63;;;;;;;25.37;38.13;95182.72;4963940;28;20318;-64
2022/06/18 10:47:05;;;;;;;4.18;3.90;;;;;;;24.89;40.50;95183.06;4985358;28;20237;-68
2022/06/18 10:49:31;;;;;;;4.43;4.03;;;;;;;24.63;41.26;95186.00;4987028;28;20222;-68
2022/06/18 10:51:58;;;;;;;4.80;4.40;;;;;;;24.36;41.04;95191.03;4983054;28;20223;-63
2022/06/18 10:54:32;;;;;;;4.63;4.22;;;;;;;24.09;42.31;95182.59;4983513;28;20243;-68
2022/06/18 10:56:58;;;;;;;5.72;4.07;;;;;;;24.03;41.20;95180.84;4984333;28;20227;-70
2022/06/18 10:59:34;;;;;;;4.45;4.00;;;;;;;23.83;40.85;95188.38;4981458;28;20274;-70
2022/06/18 11:02:15;;;;;;;5.15;4.40;;;;;;;23.74;42.30;95177.97;4981922;28;20223;-69
2022/06/18 11:04:49;;;;;;;5.15;4.63;;;;;;;23.63;43.29;95192.16;4984074;28;20215;-65
2022/06/18 11:07:14;;;;;;;6.35;4.43;;;;;;;23.48;44.27;95199.81;4963998;28;20820;-69
2022/06/18 11:09:43;;;;;;;5.03;4.53;;;;;;;23.30;44.88;95200.66;4982605;28;20322;-65
2022/06/18 11:12:27;;;;;;;6.18;4.70;;;;;;;23.17;46.40;95198.97;5039537;28;20228;-65
2022/06/18 11:14:54;;;;;;;5.82;4.75;;;;;;;22.88;47.91;95195.16;5052430;28;20222;-63
2022/06/18 11:17:29;;;;;;;7.07;5.53;;;;;;;22.79;48.83;95208.03;5064316;28;20229;-68
2022/06/18 11:20:07;;;;;;;5.85;4.82;;;;;;;22.58;49.86;95205.81;5063560;28;20228;-63
2022/06/18 11:22:33;;;;;;;4.90;4.40;;;;;;;22.54;50.19;95205.44;5063177;28;20254;-63
2022/06/18 11:25:02;;;;;;;5.40;4.90;;;;;;;22.50;49.48;95206.09;5058647;28;20229;-65
2022/06/18 11:27:36;;;;;;;5.90;5.25;;;;;;;22.61;49.24;95200.00;5055245;28;20305;-64
2022/06/18 11:30:34;;;;;;;4.88;4.38;;;;;;;22.58;48.50;95203.13;5054565;28;20228;-63
2022/06/18 11:33:03;;;;;;;5.32;4.82;;;;;;;23.00;47.67;95220.22;5053822;28;20221;-69
2022/06/18 11:35:35;;;;;;;7.18;5.35;;;;;;;23.01;48.59;95226.41;5057296;28;20233;-64
2022/06/18 11:38:04;;;;;;;4.32;4.03;;;;;;;22.71;46.70;95226.28;5073143;28;20243;-70
2022/06/18 11:40:31;;;;;;;6.32;4.32;;;;;;;22.39;46.96;95231.75;5061769;28;20216;-64
2022/06/18 11:43:02;;;;;;;5.95;4.32;;;;;;;22.29;47.25;95244.81;5069256;28;20320;-66
2022/06/18 11:45:41;;;;;;;4.30;3.92;;;;;;;22.76;44.91;95240.66;5060617;28;20260;-67
2022/06/18 11:48:34;;;;;;;5.15;4.10;;;;;;;22.92;44.72;95236.56;5054030;28;20776;-70
2022/06/18 11:51:06;;;;;;;4.38;3.88;;;;;;;22.90;44.83;95223.38;5056030;28;20217;-64
2022/06/18 11:53:56;;;;;;;4.20;3.90;;;;;;;23.45;43.65;95227.09;5052411;28;20217;-64
2022/06/18 11:56:35;;;;;;;7.28;3.88;;;;;;;23.76;42.87;95218.84;5053843;28;20306;-65
2022/06/18 11:59:23;;;;;;;4.28;3.67;;;;;;;24.28;41.92;95225.50;5077287;28;20217;-68
2022/06/18 12:01:56;;;;;;;4.10;3.47;;;;;;;24.39;40.97;95224.66;5052972;28;20210;-69
2022/06/18 12:04:57;;;;;;;4.57;4.18;;;;;;;24.76;40.45;95221.78;5070834;28;20204;-63